09:53
Airports
History
Links
Donate
Help keep this website running!
PayPal
Bitcoin
This page is community maintained. The information is intended for PC simulator navigation or reference.
Always use approved charts for navigation.
ETEJ
BAMBERG AAF
BAMBERG AAF (ETEJ)
Bamberg, Bayern, Germany (96052)
(U)
Lat/Lng:49° 55' 15" N / 10° 54' 53.1" E
49.920834 / 10.91475
Elevation:823'ft / 251mMSL
ID / ICAO:ETEJ
Runways:1
Longest:04-22
Asphalt 1,143m / 3,749ft
Nearby Weather09:50 GMT 2017-09-22
Nearby weather at EDDN, Nurnberg located 30.1 nautical miles from ETEJ
Altimeter: 30.18
Visibility: 6.2 statute miles
Wind: 3 knots (from 110°)
Temp: 11°c / 52°f
Humidity: 87.5%

METAR: EDDN 220950Z 11003KT 070V130 CAVOK 11/09 Q1022 NOSIG

(Powered by phpweather)
Airport Radio Frequencies
Tower: 120.17
Nearby VORs <50NM
Nearby NDBs
Runway 04 / 22
Dimensions:1142.6 x 15.2m 3749' x 50'ft
Surface:Asphalt
Edge Lights:Low intensity
Runway 04 [A]Runway 22 [B]
Heading:036°TH 216°TH
Lat:
Lng:
49° 55' 0"N
10° 54' 36"E
49° 55' 30"N
10° 55' 10.2"E
User Notes and Comments
49° 55' 15" N / 10° 54' 53.1" E
Distance To
Airport ID:
Nearby Airports
(C) BURG FEUERSTEIN 13.1 NM
EDQE SE 132°
(U) HASSFURT SCHWEINFURT 18.4 NM
EDQT WNW 291°
(C) Herzogenaurach 23.4 NM
EDQH S 184°
(U) Coburg Brandensteinsebene 23.9 NM
EDQC N
(U) Neustadt Aisch 27.5 NM
EDQN SSW 213°
(U) Kulmbach 28.3 NM
EDQK ENE 58°
(C) Nurnberg 30.1 NM
EDDN ( WX ) SSE 165°
VFR Chart
Flight Planning at SkyVector.com